Time;durP1;ratioP1;P1;durP2;ratioP2;P2;SDS_P1;SDS_P2;PMS_P1;PMS_P2;Temp;Humidity;BMP_temperature;BMP_pressure;BME280_temperature;BME280_humidity;BME280_pressure;Samples;Min_cycle;Max_cycle;Signal;HPM_P1;HPM_P2
2023/06/02 00:01:07;;;;;;;12.68;2.88;;;;;;;;;;5062045;28;20040;-82
2023/06/02 00:03:34;;;;;;;11.82;2.40;;;;;;;;;;5071237;28;20051;-82
2023/06/02 00:06:01;;;;;;;12.20;2.60;;;;;;;;;;5071302;28;20044;-82
2023/06/02 00:08:28;;;;;;;13.98;2.78;;;;;;;;;;5070945;28;20421;-82
2023/06/02 00:10:54;;;;;;;10.93;2.50;;;;;;;;;;5060351;28;20041;-82
2023/06/02 00:13:21;;;;;;;12.05;2.70;;;;;;;;;;5067327;28;20083;-82
2023/06/02 00:15:47;;;;;;;11.13;2.22;;;;;;;;;;5070322;28;20525;-82
2023/06/02 00:18:13;;;;;;;10.50;2.97;;;;;;;;;;5070956;28;20033;-82
2023/06/02 00:20:41;;;;;;;11.45;2.90;;;;;;;;;;5070813;28;20481;-82
2023/06/02 00:23:10;;;;;;;9.85;2.70;;;;;;;;;;5064108;28;20072;-81
2023/06/02 00:25:37;;;;;;;16.65;2.88;;;;;;;;;;5105300;28;20123;-82
2023/06/02 00:28:03;;;;;;;8.77;2.80;;;;;;;;;;5071716;28;20080;-81
2023/06/02 00:30:30;;;;;;;12.02;2.85;;;;;;;;;;5069008;28;20485;-81
2023/06/02 00:32:56;;;;;;;15.07;3.10;;;;;;;;;;5045158;28;20115;-82
2023/06/02 00:35:22;;;;;;;12.98;2.90;;;;;;;;;;5059552;28;20211;-81
2023/06/02 00:37:48;;;;;;;15.88;3.10;;;;;;;;;;5071703;28;20044;-82
2023/06/02 00:40:15;;;;;;;11.50;2.85;;;;;;;;;;5072191;28;20045;-82
2023/06/02 00:42:41;;;;;;;14.70;2.83;;;;;;;;;;5062763;28;20037;-81
2023/06/02 00:45:07;;;;;;;15.45;2.78;;;;;;;;;;5060002;28;20441;-81
2023/06/02 00:47:33;;;;;;;13.18;2.60;;;;;;;;;;5056336;28;20044;-81
2023/06/02 00:49:59;;;;;;;14.13;2.60;;;;;;;;;;5056704;28;20048;-81
2023/06/02 00:52:26;;;;;;;16.98;2.97;;;;;;;;;;5047871;28;20040;-81
2023/06/02 00:54:53;;;;;;;12.55;2.60;;;;;;;;;;5044604;28;20115;-81
2023/06/02 00:57:21;;;;;;;13.15;2.70;;;;;;;;;;5058232;28;20493;-81
2023/06/02 00:59:47;;;;;;;14.65;2.22;;;;;;;;;;5053827;28;20121;-82
2023/06/02 01:02:16;;;;;;;15.20;2.38;;;;;;;;;;5059359;28;20535;-82
2023/06/02 01:04:46;;;;;;;13.55;2.47;;;;;;;;;;5055788;28;20049;-81
2023/06/02 01:07:13;;;;;;;11.32;2.15;;;;;;;;;;5038041;28;20044;-82
2023/06/02 01:09:40;;;;;;;15.27;2.75;;;;;;;;;;5051011;28;20045;-82
2023/06/02 01:12:06;;;;;;;13.70;2.42;;;;;;;;;;5070568;28;20052;-82
2023/06/02 01:14:33;;;;;;;15.38;2.83;;;;;;;;;;5058371;28;20478;-82
2023/06/02 01:16:59;;;;;;;14.48;2.40;;;;;;;;;;5052918;28;20055;-82
2023/06/02 01:19:26;;;;;;;12.25;2.40;;;;;;;;;;5057267;28;20046;-82
2023/06/02 01:21:59;;;;;;;14.25;3.20;;;;;;;;;;5057469;28;20489;-82
2023/06/02 01:24:39;;;;;;;16.80;2.47;;;;;;;;;;5062571;28;20037;-83
2023/06/02 01:27:09;;;;;;;14.30;2.58;;;;;;;;;;5040885;28;20044;-82
2023/06/02 01:29:36;;;;;;;17.08;2.00;;;;;;;;;;5046971;28;20040;-82
2023/06/02 01:32:07;;;;;;;10.00;2.45;;;;;;;;;;5023136;28;20048;-81
2023/06/02 01:34:43;;;;;;;13.20;2.10;;;;;;;;;;5055645;28;20076;-81
2023/06/02 01:37:10;;;;;;;11.48;2.15;;;;;;;;;;5069432;28;20103;-82
2023/06/02 01:39:37;;;;;;;12.82;2.00;;;;;;;;;;5073258;28;20084;-81
2023/06/02 01:42:05;;;;;;;14.80;2.30;;;;;;;;;;5059586;28;20106;-81
2023/06/02 01:44:31;;;;;;;16.23;3.53;;;;;;;;;;5069989;28;20036;-81
2023/06/02 01:46:58;;;;;;;10.32;2.10;;;;;;;;;;5069016;28;20453;-82
2023/06/02 01:49:24;;;;;;;13.77;2.97;;;;;;;;;;5059351;28;20493;-82
2023/06/02 01:51:50;;;;;;;10.02;1.88;;;;;;;;;;5069989;28;20044;-82
2023/06/02 01:54:16;;;;;;;14.55;2.22;;;;;;;;;;5053105;28;20443;-82
2023/06/02 01:56:42;;;;;;;12.95;2.97;;;;;;;;;;5061577;28;20033;-82
2023/06/02 01:59:08;;;;;;;12.35;2.30;;;;;;;;;;5053452;28;20069;-82
2023/06/02 02:01:36;;;;;;;14.48;2.92;;;;;;;;;;5043704;28;20478;-82
2023/06/02 02:04:02;;;;;;;13.18;2.28;;;;;;;;;;5046890;28;20041;-82
2023/06/02 02:06:29;;;;;;;13.57;2.17;;;;;;;;;;5060064;28;20040;-82
2023/06/02 02:08:59;;;;;;;15.13;2.80;;;;;;;;;;5053447;28;20049;-81
2023/06/02 02:11:28;;;;;;;14.00;2.50;;;;;;;;;;5054116;28;20040;-82
2023/06/02 02:13:55;;;;;;;12.77;2.10;;;;;;;;;;5053061;28;20037;-82
2023/06/02 02:16:21;;;;;;;9.25;2.00;;;;;;;;;;5054177;28;20044;-82
2023/06/02 02:18:48;;;;;;;14.27;2.40;;;;;;;;;;5052666;28;20037;-82
2023/06/02 02:21:14;;;;;;;15.32;2.50;;;;;;;;;;5036609;28;20045;-82
2023/06/02 02:23:40;;;;;;;11.52;2.45;;;;;;;;;;5053023;28;20524;-81
2023/06/02 02:26:07;;;;;;;16.27;2.40;;;;;;;;;;5052724;28;20049;-82
2023/06/02 02:28:33;;;;;;;12.65;1.98;;;;;;;;;;5041657;28;20033;-81
2023/06/02 02:30:59;;;;;;;10.75;2.00;;;;;;;;;;5052844;28;20051;-82
2023/06/02 02:33:26;;;;;;;15.48;2.58;;;;;;;;;;5052891;28;20037;-82
2023/06/02 02:35:53;;;;;;;15.25;2.58;;;;;;;;;;5052513;28;20497;-82
2023/06/02 02:38:19;;;;;;;12.77;2.30;;;;;;;;;;5035746;28;20557;-82
2023/06/02 02:40:46;;;;;;;15.57;2.45;;;;;;;;;;5036014;28;20041;-81
2023/06/02 02:43:12;;;;;;;11.70;1.98;;;;;;;;;;5052470;28;20052;-81
2023/06/02 02:45:38;;;;;;;9.88;2.53;;;;;;;;;;5052161;28;20047;-82
2023/06/02 02:48:04;;;;;;;14.63;2.35;;;;;;;;;;5060313;28;20048;-82
2023/06/02 02:50:30;;;;;;;11.23;2.38;;;;;;;;;;5048582;28;20045;-82
2023/06/02 02:52:56;;;;;;;9.98;2.33;;;;;;;;;;5032649;28;20517;-81
2023/06/02 02:55:23;;;;;;;12.18;2.30;;;;;;;;;;5048347;28;20041;-81
2023/06/02 02:57:49;;;;;;;18.83;2.67;;;;;;;;;;5053790;28;20072;-82
2023/06/02 03:00:15;;;;;;;21.92;3.35;;;;;;;;;;5046014;28;20045;-82
2023/06/02 03:02:41;;;;;;;12.18;2.40;;;;;;;;;;5065429;28;20041;-81
2023/06/02 03:05:08;;;;;;;16.33;2.38;;;;;;;;;;5052094;28;20511;-82
2023/06/02 03:07:34;;;;;;;16.60;2.72;;;;;;;;;;5052154;28;20379;-81
2023/06/02 03:10:00;;;;;;;13.27;2.55;;;;;;;;;;5035295;28;20048;-82
2023/06/02 03:12:27;;;;;;;24.02;3.65;;;;;;;;;;5052111;28;20102;-82
2023/06/02 03:14:53;;;;;;;12.68;2.08;;;;;;;;;;5035067;28;20082;-81
2023/06/02 03:17:20;;;;;;;15.40;2.50;;;;;;;;;;5052046;28;20045;-81
2023/06/02 03:19:46;;;;;;;14.75;2.67;;;;;;;;;;5036414;28;20493;-81
2023/06/02 03:22:12;;;;;;;13.38;2.20;;;;;;;;;;5051686;28;20077;-82
2023/06/02 03:24:38;;;;;;;13.27;2.30;;;;;;;;;;5051755;28;20123;-81
2023/06/02 03:27:12;;;;;;;18.20;2.60;;;;;;;;;;5052032;28;20056;-82
2023/06/02 03:29:39;;;;;;;13.98;2.53;;;;;;;;;;5052748;28;20053;-82
2023/06/02 03:32:09;;;;;;;17.10;2.20;;;;;;;;;;5051891;28;20045;-82
2023/06/02 03:34:36;;;;;;;20.98;2.63;;;;;;;;;;5050038;28;20517;-82
2023/06/02 03:37:02;;;;;;;18.15;2.63;;;;;;;;;;5039827;28;20040;-82
2023/06/02 03:39:29;;;;;;;18.10;3.60;;;;;;;;;;5020457;28;20041;-81
2023/06/02 03:41:55;;;;;;;10.57;2.45;;;;;;;;;;5035244;28;20076;-81
2023/06/02 03:44:21;;;;;;;17.33;2.78;;;;;;;;;;5043795;28;20547;-82
2023/06/02 03:46:47;;;;;;;12.60;2.20;;;;;;;;;;5051012;28;20098;-81
2023/06/02 03:49:13;;;;;;;16.55;2.67;;;;;;;;;;5051753;28;20470;-81
2023/06/02 03:51:42;;;;;;;13.77;2.78;;;;;;;;;;5034529;28;20047;-82
2023/06/02 03:54:08;;;;;;;13.57;2.22;;;;;;;;;;5044317;28;20057;-82
2023/06/02 03:56:34;;;;;;;12.10;2.50;;;;;;;;;;5056211;28;20041;-82
2023/06/02 03:59:00;;;;;;;13.63;2.75;;;;;;;;;;5051074;28;20047;-81
2023/06/02 04:01:27;;;;;;;14.20;2.33;;;;;;;;;;5051414;28;20037;-82
2023/06/02 04:03:53;;;;;;;16.13;2.55;;;;;;;;;;5054761;28;20113;-81
2023/06/02 04:06:19;;;;;;;14.60;2.47;;;;;;;;;;5050031;28;20040;-82
2023/06/02 04:08:46;;;;;;;10.65;2.25;;;;;;;;;;5034178;28;20127;-81
2023/06/02 04:11:12;;;;;;;15.82;2.75;;;;;;;;;;5034472;28;20546;-82
2023/06/02 04:13:39;;;;;;;16.23;3.03;;;;;;;;;;5035106;28;20135;-82
2023/06/02 04:16:07;;;;;;;12.90;2.20;;;;;;;;;;5050854;28;20052;-82
2023/06/02 04:18:36;;;;;;;12.43;2.78;;;;;;;;;;5050976;28;20045;-81
2023/06/02 04:21:02;;;;;;;16.20;2.70;;;;;;;;;;5051026;28;20048;-82
2023/06/02 04:23:28;;;;;;;19.42;2.85;;;;;;;;;;5035390;28;20587;-81
2023/06/02 04:25:55;;;;;;;11.05;2.20;;;;;;;;;;5034050;28;20513;-82
2023/06/02 04:28:21;;;;;;;14.52;2.60;;;;;;;;;;5051115;28;20048;-82
2023/06/02 04:30:53;;;;;;;20.60;3.42;;;;;;;;;;5050687;28;20073;-82
2023/06/02 04:33:19;;;;;;;15.50;2.08;;;;;;;;;;5086865;28;20516;-82
2023/06/02 04:35:45;;;;;;;16.90;2.60;;;;;;;;;;5033869;28;20033;-82
2023/06/02 04:38:12;;;;;;;16.65;3.28;;;;;;;;;;5033886;28;20053;-82
2023/06/02 04:40:39;;;;;;;18.80;2.60;;;;;;;;;;5050786;28;20045;-82
2023/06/02 04:43:05;;;;;;;12.93;2.50;;;;;;;;;;5051209;28;20045;-82
2023/06/02 04:45:31;;;;;;;16.88;2.60;;;;;;;;;;5050859;28;20044;-88
2023/06/02 04:47:58;;;;;;;17.45;2.60;;;;;;;;;;5034041;28;20044;-87
2023/06/02 04:50:25;;;;;;;21.10;2.92;;;;;;;;;;5050461;28;20090;-89
2023/06/02 04:52:51;;;;;;;19.77;3.13;;;;;;;;;;5052596;28;20489;-88
2023/06/02 04:55:17;;;;;;;17.05;2.50;;;;;;;;;;5055354;28;20041;-88
2023/06/02 04:57:43;;;;;;;26.48;4.05;;;;;;;;;;5054322;28;20040;-89
2023/06/02 05:00:10;;;;;;;13.35;2.80;;;;;;;;;;5070975;28;20041;-86
2023/06/02 05:02:36;;;;;;;15.40;2.70;;;;;;;;;;5053218;28;20060;-86
2023/06/02 05:05:03;;;;;;;15.35;2.45;;;;;;;;;;5045082;28;20566;-86
2023/06/02 05:07:29;;;;;;;13.52;2.75;;;;;;;;;;5055187;28;20048;-86
2023/06/02 05:09:55;;;;;;;13.73;2.35;;;;;;;;;;5037838;28;20523;-86
2023/06/02 05:12:22;;;;;;;17.10;2.65;;;;;;;;;;5054292;28;20523;-85
2023/06/02 05:14:48;;;;;;;13.20;2.60;;;;;;;;;;5054087;28;20505;-85
2023/06/02 05:17:21;;;;;;;18.60;2.88;;;;;;;;;;5054017;28;20490;-86
2023/06/02 05:19:48;;;;;;;17.58;2.85;;;;;;;;;;5050536;28;20048;-86
2023/06/02 05:22:14;;;;;;;15.07;2.60;;;;;;;;;;5054096;28;20508;-86
2023/06/02 05:24:40;;;;;;;15.57;2.67;;;;;;;;;;5037250;28;20098;-86
2023/06/02 05:27:07;;;;;;;15.65;3.28;;;;;;;;;;5058881;28;20045;-86
2023/06/02 05:29:33;;;;;;;15.73;2.70;;;;;;;;;;5054282;28;20378;-86
2023/06/02 05:31:59;;;;;;;16.30;2.97;;;;;;;;;;5053790;28;20046;-86
2023/06/02 05:34:25;;;;;;;13.25;2.70;;;;;;;;;;5053579;28;20132;-86
2023/06/02 05:36:51;;;;;;;13.93;2.78;;;;;;;;;;5038546;28;20076;-84
2023/06/02 05:39:17;;;;;;;17.85;3.15;;;;;;;;;;5053931;28;20076;-83
2023/06/02 05:41:43;;;;;;;12.77;2.50;;;;;;;;;;5054220;28;20099;-83
2023/06/02 05:44:10;;;;;;;14.48;2.47;;;;;;;;;;5053857;28;20099;-83
2023/06/02 05:46:38;;;;;;;18.63;2.90;;;;;;;;;;5039623;28;20091;-83
2023/06/02 05:49:04;;;;;;;15.02;2.80;;;;;;;;;;5060956;28;20120;-84
2023/06/02 05:51:31;;;;;;;16.98;2.63;;;;;;;;;;5035344;28;20408;-83
2023/06/02 05:53:57;;;;;;;19.23;2.83;;;;;;;;;;5053891;28;20041;-83
2023/06/02 05:56:23;;;;;;;19.35;3.10;;;;;;;;;;5037529;28;20041;-83
2023/06/02 05:58:50;;;;;;;16.42;2.75;;;;;;;;;;5064917;28;20037;-85
2023/06/02 06:01:16;;;;;;;13.27;2.90;;;;;;;;;;5054493;28;20120;-85
2023/06/02 06:03:42;;;;;;;12.88;2.90;;;;;;;;;;5041256;28;20056;-85
2023/06/02 06:06:08;;;;;;;15.60;2.60;;;;;;;;;;5053405;28;20132;-86
2023/06/02 06:08:35;;;;;;;18.15;3.38;;;;;;;;;;5053268;28;20049;-85
2023/06/02 06:11:01;;;;;;;19.80;2.75;;;;;;;;;;5052860;28;20041;-86
2023/06/02 06:13:27;;;;;;;13.48;2.63;;;;;;;;;;5052689;28;20057;-86
2023/06/02 06:15:53;;;;;;;22.85;3.28;;;;;;;;;;5053641;28;20059;-84
2023/06/02 06:18:19;;;;;;;15.88;3.20;;;;;;;;;;5052714;28;20094;-84
2023/06/02 06:20:45;;;;;;;14.30;2.92;;;;;;;;;;5030282;28;20460;-85
2023/06/02 06:23:15;;;;;;;14.48;2.70;;;;;;;;;;5053612;28;20486;-84
2023/06/02 06:25:41;;;;;;;14.45;2.90;;;;;;;;;;5036420;28;20367;-84
2023/06/02 06:28:07;;;;;;;12.10;3.00;;;;;;;;;;5057167;28;20123;-84
2023/06/02 06:30:33;;;;;;;15.98;3.03;;;;;;;;;;5056260;28;20059;-86
2023/06/02 06:33:00;;;;;;;15.20;3.22;;;;;;;;;;5035866;28;20037;-86
2023/06/02 06:35:26;;;;;;;18.58;3.10;;;;;;;;;;5052607;28;20072;-86
2023/06/02 06:37:52;;;;;;;15.43;3.47;;;;;;;;;;5019934;28;20041;-85
2023/06/02 06:40:18;;;;;;;14.18;3.05;;;;;;;;;;5052511;28;20053;-85
2023/06/02 06:42:44;;;;;;;15.40;3.03;;;;;;;;;;5052260;28;20045;-85
2023/06/02 06:45:10;;;;;;;22.08;3.60;;;;;;;;;;5052665;28;20090;-87
2023/06/02 06:47:36;;;;;;;21.00;3.40;;;;;;;;;;5054937;28;20122;-86
2023/06/02 06:50:03;;;;;;;17.38;2.88;;;;;;;;;;5052546;28;20040;-88
2023/06/02 06:52:29;;;;;;;23.23;3.58;;;;;;;;;;5053860;28;20389;-86
2023/06/02 06:54:55;;;;;;;16.60;3.20;;;;;;;;;;5086892;28;20102;-86
2023/06/02 06:57:21;;;;;;;13.10;3.42;;;;;;;;;;5087372;28;20474;-86
2023/06/02 06:59:50;;;;;;;15.82;3.20;;;;;;;;;;5054697;28;20124;-86
2023/06/02 07:02:16;;;;;;;20.10;2.90;;;;;;;;;;5056443;28;20044;-86
2023/06/02 07:04:42;;;;;;;20.50;3.38;;;;;;;;;;5064314;28;20052;-85
2023/06/02 07:07:08;;;;;;;14.90;3.28;;;;;;;;;;5058072;28;20083;-86
2023/06/02 07:09:34;;;;;;;21.98;3.70;;;;;;;;;;5065593;28;20041;-83
2023/06/02 07:12:01;;;;;;;22.73;5.60;;;;;;;;;;5054789;28;20521;-84
2023/06/02 07:14:27;;;;;;;20.00;3.55;;;;;;;;;;5053042;28;20439;-83
2023/06/02 07:16:54;;;;;;;15.05;2.90;;;;;;;;;;5052791;28;20398;-83
2023/06/02 07:19:23;;;;;;;19.98;3.50;;;;;;;;;;5060789;28;20053;-83
2023/06/02 07:21:50;;;;;;;18.30;3.92;;;;;;;;;;5052863;28;20119;-84
2023/06/02 07:24:16;;;;;;;22.92;3.65;;;;;;;;;;5052708;28;20052;-84
2023/06/02 07:26:43;;;;;;;14.50;3.58;;;;;;;;;;5052219;28;20056;-84
2023/06/02 07:29:09;;;;;;;20.50;4.30;;;;;;;;;;5052361;28;20045;-83
2023/06/02 07:31:36;;;;;;;17.08;3.63;;;;;;;;;;5027336;28;20048;-84
2023/06/02 07:34:02;;;;;;;15.75;3.75;;;;;;;;;;5060679;28;20045;-84
2023/06/02 07:36:28;;;;;;;23.02;4.38;;;;;;;;;;5055633;28;20048;-83
2023/06/02 07:38:54;;;;;;;20.42;3.83;;;;;;;;;;5062277;28;20099;-83
2023/06/02 07:41:21;;;;;;;21.05;3.65;;;;;;;;;;5053974;28;20045;-83
2023/06/02 07:43:47;;;;;;;17.88;3.92;;;;;;;;;;5034909;28;20501;-83
2023/06/02 07:46:13;;;;;;;19.98;4.28;;;;;;;;;;5051791;28;20489;-84
2023/06/02 07:48:39;;;;;;;17.02;3.70;;;;;;;;;;5052081;28;20067;-83
2023/06/02 07:51:06;;;;;;;25.30;4.35;;;;;;;;;;5063740;28;20055;-83
2023/06/02 07:53:33;;;;;;;20.38;3.42;;;;;;;;;;5037305;28;20506;-84
2023/06/02 07:55:59;;;;;;;22.65;4.28;;;;;;;;;;5035254;28;20040;-83
2023/06/02 07:58:25;;;;;;;23.40;4.90;;;;;;;;;;5053202;28;20045;-83
2023/06/02 08:00:51;;;;;;;22.45;4.20;;;;;;;;;;5051995;28;20033;-83
2023/06/02 08:03:17;;;;;;;19.67;4.70;;;;;;;;;;5038973;28;20040;-83
2023/06/02 08:05:44;;;;;;;20.73;3.90;;;;;;;;;;5038731;28;20128;-84
2023/06/02 08:08:11;;;;;;;18.98;3.88;;;;;;;;;;5035148;28;20041;-83
2023/06/02 08:10:37;;;;;;;20.48;4.38;;;;;;;;;;5053852;28;20040;-83
2023/06/02 08:13:03;;;;;;;26.75;4.68;;;;;;;;;;5051361;28;20401;-86
2023/06/02 08:15:29;;;;;;;18.08;4.25;;;;;;;;;;5039150;28;20037;-87
2023/06/02 08:17:55;;;;;;;19.55;4.22;;;;;;;;;;5051696;28;20076;-87
2023/06/02 08:20:22;;;;;;;22.35;4.40;;;;;;;;;;5051643;28;20033;-86
2023/06/02 08:22:48;;;;;;;18.92;4.07;;;;;;;;;;5085584;28;20474;-86
2023/06/02 08:25:15;;;;;;;20.48;4.65;;;;;;;;;;5068561;28;20216;-87
2023/06/02 08:27:44;;;;;;;18.70;4.38;;;;;;;;;;5088741;28;20048;-86
2023/06/02 08:30:11;;;;;;;19.02;4.00;;;;;;;;;;5055872;28;20048;-86
2023/06/02 08:32:37;;;;;;;15.73;3.50;;;;;;;;;;5055870;28;20397;-87
2023/06/02 08:35:03;;;;;;;20.08;4.05;;;;;;;;;;5055602;28;20068;-86
2023/06/02 08:37:31;;;;;;;25.42;4.32;;;;;;;;;;5055718;28;20040;-86
2023/06/02 08:39:58;;;;;;;21.75;4.53;;;;;;;;;;5055335;28;20476;-86
2023/06/02 08:42:26;;;;;;;21.90;4.05;;;;;;;;;;5055767;28;20041;-86
2023/06/02 08:44:52;;;;;;;14.77;3.67;;;;;;;;;;5058962;28;20076;-87
2023/06/02 08:47:21;;;;;;;22.40;3.83;;;;;;;;;;5054763;28;20493;-87
2023/06/02 08:49:47;;;;;;;16.17;3.67;;;;;;;;;;5038747;28;20076;-86
2023/06/02 08:52:19;;;;;;;22.73;4.50;;;;;;;;;;5055216;28;20462;-84
2023/06/02 08:54:46;;;;;;;16.60;4.20;;;;;;;;;;5057183;28;20498;-85
2023/06/02 08:57:16;;;;;;;20.60;4.50;;;;;;;;;;5055331;28;20041;-86
2023/06/02 08:59:46;;;;;;;18.33;3.80;;;;;;;;;;5064018;28;20540;-86
2023/06/02 09:02:12;;;;;;;17.30;3.75;;;;;;;;;;5070672;28;20073;-86
2023/06/02 09:04:38;;;;;;;18.63;4.93;;;;;;;;;;5062288;28;20043;-85
2023/06/02 09:07:10;;;;;;;15.88;3.53;;;;;;;;;;5039445;28;20119;-85
2023/06/02 09:09:39;;;;;;;15.52;4.25;;;;;;;;;;5054934;28;20508;-85
2023/06/02 09:12:05;;;;;;;18.42;4.57;;;;;;;;;;5063401;28;20087;-85
2023/06/02 09:14:31;;;;;;;12.68;3.90;;;;;;;;;;5055205;28;20048;-85
2023/06/02 09:16:57;;;;;;;15.20;3.85;;;;;;;;;;5070711;28;20049;-85
2023/06/02 09:19:23;;;;;;;15.00;3.58;;;;;;;;;;5041061;28;20426;-85
2023/06/02 09:21:49;;;;;;;15.38;4.00;;;;;;;;;;5052975;28;20412;-85
2023/06/02 09:24:31;;;;;;;18.42;3.67;;;;;;;;;;5053762;28;20041;-86
2023/06/02 09:26:57;;;;;;;11.50;3.42;;;;;;;;;;5053182;28;20033;-84
2023/06/02 09:29:23;;;;;;;11.93;3.42;;;;;;;;;;5053498;28;20087;-84
2023/06/02 09:31:54;;;;;;;14.02;3.78;;;;;;;;;;5054063;28;20053;-83
2023/06/02 09:34:24;;;;;;;9.20;2.95;;;;;;;;;;5068554;28;20501;-85
2023/06/02 09:36:51;;;;;;;12.52;2.90;;;;;;;;;;5086367;28;20060;-85
2023/06/02 09:39:38;;;;;;;13.43;3.42;;;;;;;;;;5037051;28;20081;-85
2023/06/02 09:42:05;;;;;;;16.25;3.40;;;;;;;;;;5064788;28;20397;-86
2023/06/02 09:44:31;;;;;;;13.77;2.67;;;;;;;;;;5054054;28;20045;-85
2023/06/02 09:46:58;;;;;;;11.70;3.13;;;;;;;;;;5062630;28;20140;-85
2023/06/02 09:49:24;;;;;;;15.63;2.90;;;;;;;;;;5063065;28;20037;-81
2023/06/02 09:51:50;;;;;;;12.13;2.58;;;;;;;;;;5057579;28;20045;-80
2023/06/02 09:54:16;;;;;;;12.50;2.75;;;;;;;;;;5041537;28;20041;-80
2023/06/02 09:56:43;;;;;;;12.48;2.60;;;;;;;;;;5056580;28;20037;-80
2023/06/02 09:59:09;;;;;;;11.00;2.40;;;;;;;;;;5048557;28;20040;-80
2023/06/02 10:01:36;;;;;;;11.27;2.60;;;;;;;;;;5043212;28;20517;-80
2023/06/02 10:04:03;;;;;;;9.95;2.58;;;;;;;;;;5034282;28;20041;-81
2023/06/02 10:06:29;;;;;;;10.00;2.50;;;;;;;;;;5053699;28;20454;-81
2023/06/02 10:09:10;;;;;;;11.90;2.50;;;;;;;;;;5052728;28;20094;-80
2023/06/02 10:12:00;;;;;;;9.68;2.17;;;;;;;;;;5025248;28;20043;-80
2023/06/02 10:14:39;;;;;;;9.90;2.60;;;;;;;;;;5053199;28;20045;-80
2023/06/02 10:17:20;;;;;;;6.00;1.80;;;;;;;;;;5054855;28;20045;-80
2023/06/02 10:20:05;;;;;;;8.80;1.88;;;;;;;;;;5029715;28;20042;-79
2023/06/02 10:22:37;;;;;;;7.63;2.28;;;;;;;;;;5036407;28;20143;-80
2023/06/02 10:25:13;;;;;;;6.32;1.73;;;;;;;;;;5053252;28;20036;-80
2023/06/02 10:27:40;;;;;;;10.20;1.85;;;;;;;;;;5053572;28;20047;-80
2023/06/02 10:30:06;;;;;;;10.10;1.98;;;;;;;;;;5052544;28;20052;-80
2023/06/02 10:32:59;;;;;;;8.40;2.35;;;;;;;;;;5052110;28;20041;-80
2023/06/02 10:35:45;;;;;;;8.73;2.50;;;;;;;;;;5023105;28;20136;-80
2023/06/02 10:38:24;;;;;;;10.25;1.90;;;;;;;;;;5053170;28;20056;-80
2023/06/02 10:40:52;;;;;;;4.60;1.70;;;;;;;;;;5035717;28;20182;-80
2023/06/02 10:43:18;;;;;;;4.65;1.73;;;;;;;;;;5052557;28;20374;-80
2023/06/02 10:45:44;;;;;;;9.02;2.05;;;;;;;;;;5035955;28;20109;-80
2023/06/02 10:48:29;;;;;;;8.32;1.90;;;;;;;;;;5052624;28;20562;-80
2023/06/02 10:50:55;;;;;;;5.72;1.70;;;;;;;;;;5042107;28;20513;-80
2023/06/02 10:53:21;;;;;;;8.32;1.73;;;;;;;;;;5066380;28;20045;-80
2023/06/02 10:55:47;;;;;;;7.38;1.55;;;;;;;;;;5052203;28;20405;-80
2023/06/02 10:58:14;;;;;;;9.45;2.30;;;;;;;;;;5052038;28;20037;-79
2023/06/02 11:00:43;;;;;;;7.78;1.70;;;;;;;;;;5059784;28;20041;-80
2023/06/02 11:03:10;;;;;;;5.78;1.58;;;;;;;;;;5052347;28;20079;-80
2023/06/02 11:05:36;;;;;;;8.40;1.92;;;;;;;;;;5051839;28;20036;-80
2023/06/02 11:08:11;;;;;;;4.00;1.35;;;;;;;;;;5051983;28;20045;-79
2023/06/02 11:10:46;;;;;;;5.65;1.42;;;;;;;;;;5061734;28;20080;-80
2023/06/02 11:13:16;;;;;;;4.38;1.40;;;;;;;;;;5052110;28;20049;-80
2023/06/02 11:16:02;;;;;;;9.93;1.60;;;;;;;;;;5051536;28;20044;-80
2023/06/02 11:18:28;;;;;;;3.60;1.27;;;;;;;;;;5035228;28;20047;-80
2023/06/02 11:20:55;;;;;;;5.47;1.40;;;;;;;;;;5041714;28;20102;-80
2023/06/02 11:23:22;;;;;;;10.43;1.80;;;;;;;;;;5052916;28;20041;-84
2023/06/02 11:25:48;;;;;;;6.55;1.48;;;;;;;;;;5054942;28;20578;-84
2023/06/02 11:28:24;;;;;;;8.25;1.73;;;;;;;;;;5052854;28;20114;-84
2023/06/02 11:31:04;;;;;;;5.22;1.50;;;;;;;;;;5057643;28;20045;-85
2023/06/02 11:33:35;;;;;;;7.43;1.77;;;;;;;;;;5083825;28;20049;-85
2023/06/02 11:36:03;;;;;;;4.90;1.48;;;;;;;;;;5064509;28;20037;-84
2023/06/02 11:38:32;;;;;;;4.93;1.73;;;;;;;;;;5032017;28;20048;-84
2023/06/02 11:41:11;;;;;;;9.80;1.60;;;;;;;;;;5029882;28;20075;-84
2023/06/02 11:43:41;;;;;;;8.70;1.80;;;;;;;;;;5068757;28;20097;-84
2023/06/02 11:46:08;;;;;;;5.07;1.50;;;;;;;;;;5035668;28;20086;-81
2023/06/02 11:48:38;;;;;;;5.72;1.27;;;;;;;;;;5034961;28;20043;-85
2023/06/02 11:51:22;;;;;;;17.15;2.00;;;;;;;;;;5051385;28;20076;-84
2023/06/02 11:53:58;;;;;;;8.50;2.10;;;;;;;;;;5052600;28;20037;-83
2023/06/02 11:56:25;;;;;;;7.00;1.65;;;;;;;;;;5045286;28;20393;-78
2023/06/02 11:58:52;;;;;;;7.00;1.55;;;;;;;;;;5050331;28;20044;-77
2023/06/02 12:01:18;;;;;;;4.57;1.20;;;;;;;;;;5034458;28;20037;-81
2023/06/02 12:04:04;;;;;;;5.10;1.40;;;;;;;;;;5034655;28;20055;-78
2023/06/02 12:06:31;;;;;;;7.22;1.60;;;;;;;;;;5034750;28;20128;-79
2023/06/02 12:08:57;;;;;;;5.00;1.45;;;;;;;;;;5050711;28;20574;-78
2023/06/02 12:11:24;;;;;;;4.78;1.42;;;;;;;;;;5050512;28;20049;-78
2023/06/02 12:14:03;;;;;;;2.85;1.48;;;;;;;;;;5044868;28;20047;-78
2023/06/02 12:16:29;;;;;;;3.53;1.40;;;;;;;;;;5046358;28;20044;-78
2023/06/02 12:18:56;;;;;;;4.60;1.40;;;;;;;;;;5054626;28;20498;-78
2023/06/02 12:21:23;;;;;;;3.47;1.27;;;;;;;;;;5045995;28;20060;-85
2023/06/02 12:23:49;;;;;;;5.07;1.40;;;;;;;;;;5050580;28;20037;-85
2023/06/02 12:26:16;;;;;;;5.20;1.40;;;;;;;;;;5050803;28;20153;-85
2023/06/02 12:28:42;;;;;;;6.10;1.58;;;;;;;;;;5047096;28;20091;-86
2023/06/02 12:31:09;;;;;;;3.25;1.33;;;;;;;;;;5045240;28;20049;-85
2023/06/02 12:33:35;;;;;;;3.00;1.17;;;;;;;;;;5049609;28;20045;-85
2023/06/02 12:36:01;;;;;;;3.65;1.50;;;;;;;;;;5017044;28;20041;-85
2023/06/02 12:38:27;;;;;;;5.47;1.30;;;;;;;;;;5050712;28;20112;-78
2023/06/02 12:40:53;;;;;;;3.35;1.10;;;;;;;;;;5049996;28;20059;-78
2023/06/02 12:43:20;;;;;;;4.68;1.20;;;;;;;;;;5038872;28;20094;-79
2023/06/02 12:45:46;;;;;;;5.35;1.20;;;;;;;;;;5033674;28;20037;-79
2023/06/02 12:48:13;;;;;;;5.25;1.25;;;;;;;;;;5057133;28;20037;-79
2023/06/02 12:50:40;;;;;;;9.23;1.48;;;;;;;;;;5050364;28;20033;-78
2023/06/02 12:53:06;;;;;;;5.38;1.10;;;;;;;;;;5050405;28;20476;-78
2023/06/02 12:55:32;;;;;;;3.72;1.17;;;;;;;;;;5051171;28;20037;-79
2023/06/02 12:57:59;;;;;;;3.72;1.00;;;;;;;;;;5051586;28;20130;-79
2023/06/02 13:00:25;;;;;;;3.75;1.02;;;;;;;;;;5052638;28;20412;-78
2023/06/02 13:02:51;;;;;;;7.00;1.20;;;;;;;;;;5034031;28;20167;-78
2023/06/02 13:05:17;;;;;;;5.63;1.27;;;;;;;;;;5013656;28;20054;-78
2023/06/02 13:07:44;;;;;;;3.60;1.00;;;;;;;;;;5054269;28;20047;-79
2023/06/02 13:10:11;;;;;;;3.03;1.10;;;;;;;;;;5056666;28;20101;-78
2023/06/02 13:12:38;;;;;;;4.22;1.25;;;;;;;;;;5050215;28;20037;-79
2023/06/02 13:15:05;;;;;;;3.05;1.17;;;;;;;;;;5058656;28;20765;-78
2023/06/02 13:17:32;;;;;;;5.57;1.48;;;;;;;;;;5036581;28;20123;-79
2023/06/02 13:19:58;;;;;;;2.90;1.02;;;;;;;;;;5040530;28;20033;-78
2023/06/02 13:22:26;;;;;;;4.68;1.30;;;;;;;;;;5060073;28;20045;-78
2023/06/02 13:24:52;;;;;;;4.57;1.27;;;;;;;;;;5053690;28;20111;-79
2023/06/02 13:27:18;;;;;;;4.22;1.40;;;;;;;;;;5053213;28;20135;-79
2023/06/02 13:29:45;;;;;;;3.65;1.27;;;;;;;;;;5054068;28;20094;-78
2023/06/02 13:32:11;;;;;;;3.05;1.40;;;;;;;;;;5055605;28;20488;-79
2023/06/02 13:34:38;;;;;;;6.43;1.50;;;;;;;;;;5054507;28;20080;-78
2023/06/02 13:37:04;;;;;;;4.82;1.42;;;;;;;;;;5036418;28;20190;-78
2023/06/02 13:39:30;;;;;;;4.45;1.40;;;;;;;;;;5053994;28;20055;-78
2023/06/02 13:41:56;;;;;;;4.93;1.30;;;;;;;;;;5054010;28;20045;-79
2023/06/02 13:44:22;;;;;;;3.08;1.40;;;;;;;;;;5037035;28;20045;-78
2023/06/02 13:46:51;;;;;;;7.28;1.60;;;;;;;;;;5053747;28;20394;-78
2023/06/02 13:49:19;;;;;;;7.55;1.70;;;;;;;;;;5052913;28;20044;-78
2023/06/02 13:51:48;;;;;;;5.13;1.60;;;;;;;;;;5053383;28;20045;-78
2023/06/02 13:54:18;;;;;;;4.10;1.70;;;;;;;;;;5052957;28;20032;-79
2023/06/02 13:56:48;;;;;;;7.07;1.50;;;;;;;;;;5054129;28;20041;-79
2023/06/02 13:59:14;;;;;;;5.00;1.77;;;;;;;;;;5058047;28;20045;-78
2023/06/02 14:01:40;;;;;;;6.25;1.60;;;;;;;;;;5053143;28;20043;-78
2023/06/02 14:04:09;;;;;;;4.47;1.30;;;;;;;;;;5053200;28;20103;-78
2023/06/02 14:06:36;;;;;;;6.00;1.50;;;;;;;;;;5043837;28;20049;-79
2023/06/02 14:09:11;;;;;;;6.93;1.67;;;;;;;;;;5050667;28;20047;-78
2023/06/02 14:11:38;;;;;;;5.13;1.75;;;;;;;;;;5053098;28;20048;-79
2023/06/02 14:14:04;;;;;;;7.22;1.95;;;;;;;;;;5035913;28;20102;-79
2023/06/02 14:16:31;;;;;;;4.25;1.60;;;;;;;;;;5036820;28;20041;-79
2023/06/02 14:18:57;;;;;;;4.18;1.55;;;;;;;;;;5049517;28;20127;-79
2023/06/02 14:21:24;;;;;;;8.02;1.60;;;;;;;;;;5035833;28;20515;-79
2023/06/02 14:23:51;;;;;;;7.68;1.88;;;;;;;;;;5052923;28;20041;-79
2023/06/02 14:26:17;;;;;;;9.45;1.80;;;;;;;;;;5052452;28;20472;-79
2023/06/02 14:28:43;;;;;;;8.05;2.15;;;;;;;;;;5052704;28;20045;-78
2023/06/02 14:31:09;;;;;;;8.95;2.20;;;;;;;;;;5052785;28;20084;-78
2023/06/02 14:33:35;;;;;;;7.13;2.17;;;;;;;;;;5047065;28;20048;-78
2023/06/02 14:36:01;;;;;;;8.82;2.78;;;;;;;;;;5051812;28;20077;-78